sensor_id;sensor_type;location;lat;lon;timestamp;P1;durP1;ratioP1;P2;durP2;ratioP2
1336;SDS011;662;48.814;9.318;2024-03-08T00:00:07;24.83;;;20.53;;
1336;SDS011;662;48.814;9.318;2024-03-08T00:02:40;26.30;;;21.73;;
1336;SDS011;662;48.814;9.318;2024-03-08T00:05:09;24.07;;;20.13;;
1336;SDS011;662;48.814;9.318;2024-03-08T00:07:36;24.13;;;20.27;;
1336;SDS011;662;48.814;9.318;2024-03-08T00:10:03;25.07;;;20.17;;
1336;SDS011;662;48.814;9.318;2024-03-08T00:12:29;26.80;;;21.33;;
1336;SDS011;662;48.814;9.318;2024-03-08T00:14:55;26.03;;;20.83;;
1336;SDS011;662;48.814;9.318;2024-03-08T00:17:21;25.23;;;21.77;;
1336;SDS011;662;48.814;9.318;2024-03-08T00:19:53;27.37;;;22.07;;
1336;SDS011;662;48.814;9.318;2024-03-08T00:22:19;26.80;;;21.27;;
1336;SDS011;662;48.814;9.318;2024-03-08T00:24:44;25.80;;;20.77;;
1336;SDS011;662;48.814;9.318;2024-03-08T00:27:10;24.77;;;19.60;;
1336;SDS011;662;48.814;9.318;2024-03-08T00:29:36;26.67;;;21.27;;
1336;SDS011;662;48.814;9.318;2024-03-08T00:32:03;24.50;;;19.43;;
1336;SDS011;662;48.814;9.318;2024-03-08T00:34:29;26.77;;;20.77;;
1336;SDS011;662;48.814;9.318;2024-03-08T00:36:56;26.93;;;21.80;;
1336;SDS011;662;48.814;9.318;2024-03-08T00:39:23;26.40;;;20.13;;
1336;SDS011;662;48.814;9.318;2024-03-08T00:41:49;24.53;;;20.57;;
1336;SDS011;662;48.814;9.318;2024-03-08T00:44:14;22.30;;;18.90;;
1336;SDS011;662;48.814;9.318;2024-03-08T00:46:40;26.43;;;21.00;;
1336;SDS011;662;48.814;9.318;2024-03-08T00:49:05;25.00;;;21.13;;
1336;SDS011;662;48.814;9.318;2024-03-08T00:51:31;30.37;;;22.47;;
1336;SDS011;662;48.814;9.318;2024-03-08T00:53:57;26.33;;;22.40;;
1336;SDS011;662;48.814;9.318;2024-03-08T00:56:23;26.07;;;21.43;;
1336;SDS011;662;48.814;9.318;2024-03-08T00:58:49;28.03;;;23.63;;
1336;SDS011;662;48.814;9.318;2024-03-08T01:01:16;24.27;;;21.67;;
1336;SDS011;662;48.814;9.318;2024-03-08T01:03:43;26.80;;;22.10;;
1336;SDS011;662;48.814;9.318;2024-03-08T01:06:09;24.00;;;20.77;;
1336;SDS011;662;48.814;9.318;2024-03-08T01:08:36;26.47;;;21.77;;
1336;SDS011;662;48.814;9.318;2024-03-08T01:11:03;28.33;;;21.53;;
1336;SDS011;662;48.814;9.318;2024-03-08T01:13:30;25.10;;;20.60;;
1336;SDS011;662;48.814;9.318;2024-03-08T01:15:55;23.40;;;20.80;;
1336;SDS011;662;48.814;9.318;2024-03-08T01:18:21;25.03;;;20.80;;
1336;SDS011;662;48.814;9.318;2024-03-08T01:20:47;25.37;;;20.97;;
1336;SDS011;662;48.814;9.318;2024-03-08T01:23:13;22.47;;;20.07;;
1336;SDS011;662;48.814;9.318;2024-03-08T01:25:39;22.80;;;19.80;;
1336;SDS011;662;48.814;9.318;2024-03-08T01:28:04;26.43;;;21.70;;
1336;SDS011;662;48.814;9.318;2024-03-08T01:30:30;27.80;;;21.40;;
1336;SDS011;662;48.814;9.318;2024-03-08T01:32:57;28.70;;;22.73;;
1336;SDS011;662;48.814;9.318;2024-03-08T01:35:23;23.50;;;19.80;;
1336;SDS011;662;48.814;9.318;2024-03-08T01:37:49;25.50;;;20.00;;
1336;SDS011;662;48.814;9.318;2024-03-08T01:40:15;23.93;;;19.77;;
1336;SDS011;662;48.814;9.318;2024-03-08T01:42:41;24.80;;;19.80;;
1336;SDS011;662;48.814;9.318;2024-03-08T01:45:07;24.17;;;19.13;;
1336;SDS011;662;48.814;9.318;2024-03-08T01:47:34;24.20;;;20.83;;
1336;SDS011;662;48.814;9.318;2024-03-08T01:50:00;23.37;;;20.57;;
1336;SDS011;662;48.814;9.318;2024-03-08T01:52:31;24.50;;;20.60;;
1336;SDS011;662;48.814;9.318;2024-03-08T01:55:01;25.30;;;20.67;;
1336;SDS011;662;48.814;9.318;2024-03-08T01:57:28;25.73;;;20.00;;
1336;SDS011;662;48.814;9.318;2024-03-08T01:59:58;24.77;;;19.93;;
1336;SDS011;662;48.814;9.318;2024-03-08T02:02:30;25.17;;;19.80;;
1336;SDS011;662;48.814;9.318;2024-03-08T02:05:00;23.83;;;20.20;;
1336;SDS011;662;48.814;9.318;2024-03-08T02:07:26;24.77;;;20.33;;
1336;SDS011;662;48.814;9.318;2024-03-08T02:09:52;23.10;;;19.50;;
1336;SDS011;662;48.814;9.318;2024-03-08T02:12:18;24.00;;;19.97;;
1336;SDS011;662;48.814;9.318;2024-03-08T02:14:45;23.70;;;19.80;;
1336;SDS011;662;48.814;9.318;2024-03-08T02:17:12;24.03;;;19.53;;
1336;SDS011;662;48.814;9.318;2024-03-08T02:19:38;22.13;;;18.13;;
1336;SDS011;662;48.814;9.318;2024-03-08T02:22:03;23.47;;;19.00;;
1336;SDS011;662;48.814;9.318;2024-03-08T02:24:30;21.27;;;18.37;;
1336;SDS011;662;48.814;9.318;2024-03-08T02:26:57;22.67;;;19.60;;
1336;SDS011;662;48.814;9.318;2024-03-08T02:29:22;21.57;;;19.27;;
1336;SDS011;662;48.814;9.318;2024-03-08T02:31:52;23.50;;;19.50;;
1336;SDS011;662;48.814;9.318;2024-03-08T02:34:18;23.83;;;19.70;;
1336;SDS011;662;48.814;9.318;2024-03-08T02:36:43;25.67;;;19.63;;
1336;SDS011;662;48.814;9.318;2024-03-08T02:39:09;22.10;;;18.53;;
1336;SDS011;662;48.814;9.318;2024-03-08T02:41:35;26.17;;;19.97;;
1336;SDS011;662;48.814;9.318;2024-03-08T02:44:01;22.57;;;18.30;;
1336;SDS011;662;48.814;9.318;2024-03-08T02:46:27;22.80;;;19.50;;
1336;SDS011;662;48.814;9.318;2024-03-08T02:48:53;24.87;;;19.33;;
1336;SDS011;662;48.814;9.318;2024-03-08T02:51:18;22.37;;;19.90;;
1336;SDS011;662;48.814;9.318;2024-03-08T02:53:45;23.03;;;18.77;;
1336;SDS011;662;48.814;9.318;2024-03-08T02:56:13;22.67;;;19.07;;
1336;SDS011;662;48.814;9.318;2024-03-08T02:58:41;24.33;;;19.47;;
1336;SDS011;662;48.814;9.318;2024-03-08T03:01:07;21.70;;;17.80;;
1336;SDS011;662;48.814;9.318;2024-03-08T03:03:35;23.23;;;18.03;;
1336;SDS011;662;48.814;9.318;2024-03-08T03:06:01;21.73;;;19.10;;
1336;SDS011;662;48.814;9.318;2024-03-08T03:08:26;22.33;;;17.53;;
1336;SDS011;662;48.814;9.318;2024-03-08T03:10:52;24.13;;;17.90;;
1336;SDS011;662;48.814;9.318;2024-03-08T03:13:17;21.63;;;17.50;;
1336;SDS011;662;48.814;9.318;2024-03-08T03:15:45;21.37;;;18.63;;
1336;SDS011;662;48.814;9.318;2024-03-08T03:18:11;19.23;;;16.90;;
1336;SDS011;662;48.814;9.318;2024-03-08T03:20:37;24.90;;;19.30;;
1336;SDS011;662;48.814;9.318;2024-03-08T03:23:06;21.33;;;17.53;;
1336;SDS011;662;48.814;9.318;2024-03-08T03:25:33;19.67;;;17.57;;
1336;SDS011;662;48.814;9.318;2024-03-08T03:28:03;21.83;;;17.27;;
1336;SDS011;662;48.814;9.318;2024-03-08T03:30:29;23.30;;;18.80;;
1336;SDS011;662;48.814;9.318;2024-03-08T03:33:00;20.13;;;16.93;;
1336;SDS011;662;48.814;9.318;2024-03-08T03:35:27;19.83;;;16.30;;
1336;SDS011;662;48.814;9.318;2024-03-08T03:37:54;20.60;;;17.43;;
1336;SDS011;662;48.814;9.318;2024-03-08T03:40:32;20.97;;;17.40;;
1336;SDS011;662;48.814;9.318;2024-03-08T03:42:58;19.20;;;16.00;;
1336;SDS011;662;48.814;9.318;2024-03-08T03:45:24;21.97;;;17.90;;
1336;SDS011;662;48.814;9.318;2024-03-08T03:47:50;20.60;;;16.80;;
1336;SDS011;662;48.814;9.318;2024-03-08T03:50:16;22.97;;;18.83;;
1336;SDS011;662;48.814;9.318;2024-03-08T03:52:46;21.03;;;17.70;;
1336;SDS011;662;48.814;9.318;2024-03-08T03:55:12;18.83;;;16.37;;
1336;SDS011;662;48.814;9.318;2024-03-08T03:57:38;21.10;;;17.33;;
1336;SDS011;662;48.814;9.318;2024-03-08T04:00:05;21.63;;;17.60;;
1336;SDS011;662;48.814;9.318;2024-03-08T04:02:31;22.07;;;19.70;;
1336;SDS011;662;48.814;9.318;2024-03-08T04:04:57;19.50;;;17.40;;
1336;SDS011;662;48.814;9.318;2024-03-08T04:07:22;20.60;;;17.70;;
1336;SDS011;662;48.814;9.318;2024-03-08T04:09:48;22.63;;;18.17;;
1336;SDS011;662;48.814;9.318;2024-03-08T04:12:14;22.10;;;17.97;;
1336;SDS011;662;48.814;9.318;2024-03-08T04:14:41;20.50;;;17.27;;
1336;SDS011;662;48.814;9.318;2024-03-08T04:17:07;22.27;;;18.67;;
1336;SDS011;662;48.814;9.318;2024-03-08T04:19:34;23.30;;;19.10;;
1336;SDS011;662;48.814;9.318;2024-03-08T04:22:00;21.67;;;18.10;;
1336;SDS011;662;48.814;9.318;2024-03-08T04:24:27;21.93;;;18.57;;
1336;SDS011;662;48.814;9.318;2024-03-08T04:26:52;22.83;;;19.87;;
1336;SDS011;662;48.814;9.318;2024-03-08T04:29:18;19.80;;;17.70;;
1336;SDS011;662;48.814;9.318;2024-03-08T04:31:47;21.63;;;19.13;;
1336;SDS011;662;48.814;9.318;2024-03-08T04:34:12;21.17;;;18.47;;
1336;SDS011;662;48.814;9.318;2024-03-08T04:36:38;22.93;;;18.00;;
1336;SDS011;662;48.814;9.318;2024-03-08T04:39:04;22.27;;;18.00;;
1336;SDS011;662;48.814;9.318;2024-03-08T04:41:29;21.33;;;19.00;;
1336;SDS011;662;48.814;9.318;2024-03-08T04:43:56;21.30;;;18.73;;
1336;SDS011;662;48.814;9.318;2024-03-08T04:46:22;22.50;;;18.47;;
1336;SDS011;662;48.814;9.318;2024-03-08T04:48:48;21.87;;;19.40;;
1336;SDS011;662;48.814;9.318;2024-03-08T04:51:14;28.20;;;19.90;;
1336;SDS011;662;48.814;9.318;2024-03-08T04:53:41;23.10;;;19.40;;
1336;SDS011;662;48.814;9.318;2024-03-08T04:56:10;24.27;;;19.10;;
1336;SDS011;662;48.814;9.318;2024-03-08T04:58:36;23.97;;;20.00;;
1336;SDS011;662;48.814;9.318;2024-03-08T05:01:01;25.73;;;19.90;;
1336;SDS011;662;48.814;9.318;2024-03-08T05:03:27;26.60;;;21.10;;
1336;SDS011;662;48.814;9.318;2024-03-08T05:05:56;26.53;;;20.60;;
1336;SDS011;662;48.814;9.318;2024-03-08T05:08:22;22.07;;;19.67;;
1336;SDS011;662;48.814;9.318;2024-03-08T05:10:47;25.43;;;20.70;;
1336;SDS011;662;48.814;9.318;2024-03-08T05:13:13;27.30;;;21.83;;
1336;SDS011;662;48.814;9.318;2024-03-08T05:15:38;21.97;;;18.73;;
1336;SDS011;662;48.814;9.318;2024-03-08T05:18:04;26.10;;;21.20;;
1336;SDS011;662;48.814;9.318;2024-03-08T05:20:30;23.10;;;20.57;;
1336;SDS011;662;48.814;9.318;2024-03-08T05:22:56;24.00;;;20.50;;
1336;SDS011;662;48.814;9.318;2024-03-08T05:25:25;24.30;;;19.40;;
1336;SDS011;662;48.814;9.318;2024-03-08T05:27:51;24.00;;;19.80;;
1336;SDS011;662;48.814;9.318;2024-03-08T05:30:17;24.80;;;19.77;;
1336;SDS011;662;48.814;9.318;2024-03-08T05:32:42;25.40;;;19.97;;
1336;SDS011;662;48.814;9.318;2024-03-08T05:35:10;23.70;;;20.37;;
1336;SDS011;662;48.814;9.318;2024-03-08T05:37:37;26.40;;;21.87;;
1336;SDS011;662;48.814;9.318;2024-03-08T05:40:05;23.93;;;20.07;;
1336;SDS011;662;48.814;9.318;2024-03-08T05:42:34;22.27;;;19.63;;
1336;SDS011;662;48.814;9.318;2024-03-08T05:45:00;25.03;;;20.33;;
1336;SDS011;662;48.814;9.318;2024-03-08T05:47:25;25.97;;;22.00;;
1336;SDS011;662;48.814;9.318;2024-03-08T05:49:51;27.73;;;21.63;;
1336;SDS011;662;48.814;9.318;2024-03-08T05:52:18;30.67;;;23.10;;
1336;SDS011;662;48.814;9.318;2024-03-08T05:54:44;31.00;;;22.80;;
1336;SDS011;662;48.814;9.318;2024-03-08T05:57:10;23.57;;;20.77;;
1336;SDS011;662;48.814;9.318;2024-03-08T05:59:36;25.60;;;20.63;;
1336;SDS011;662;48.814;9.318;2024-03-08T06:02:02;27.70;;;21.67;;
1336;SDS011;662;48.814;9.318;2024-03-08T06:04:28;26.90;;;21.33;;
1336;SDS011;662;48.814;9.318;2024-03-08T06:06:54;30.43;;;23.80;;
1336;SDS011;662;48.814;9.318;2024-03-08T06:09:22;29.00;;;23.07;;
1336;SDS011;662;48.814;9.318;2024-03-08T06:11:48;27.90;;;22.97;;
1336;SDS011;662;48.814;9.318;2024-03-08T06:14:14;26.20;;;21.70;;
1336;SDS011;662;48.814;9.318;2024-03-08T06:16:44;26.80;;;22.23;;
1336;SDS011;662;48.814;9.318;2024-03-08T06:19:10;38.63;;;26.47;;
1336;SDS011;662;48.814;9.318;2024-03-08T06:21:37;29.43;;;22.50;;
1336;SDS011;662;48.814;9.318;2024-03-08T06:24:02;27.37;;;22.27;;
1336;SDS011;662;48.814;9.318;2024-03-08T06:26:28;29.50;;;23.47;;
1336;SDS011;662;48.814;9.318;2024-03-08T06:28:54;27.00;;;21.07;;
1336;SDS011;662;48.814;9.318;2024-03-08T06:31:20;24.83;;;21.80;;
1336;SDS011;662;48.814;9.318;2024-03-08T06:33:46;28.37;;;23.73;;
1336;SDS011;662;48.814;9.318;2024-03-08T06:36:11;28.27;;;21.80;;
1336;SDS011;662;48.814;9.318;2024-03-08T06:38:38;25.90;;;22.50;;
1336;SDS011;662;48.814;9.318;2024-03-08T06:41:08;24.97;;;21.30;;
1336;SDS011;662;48.814;9.318;2024-03-08T06:43:37;27.43;;;21.63;;
1336;SDS011;662;48.814;9.318;2024-03-08T06:46:02;24.77;;;20.80;;
1336;SDS011;662;48.814;9.318;2024-03-08T06:48:29;25.67;;;21.90;;
1336;SDS011;662;48.814;9.318;2024-03-08T06:50:54;28.13;;;22.23;;
1336;SDS011;662;48.814;9.318;2024-03-08T06:53:21;28.73;;;22.23;;
1336;SDS011;662;48.814;9.318;2024-03-08T06:55:47;27.30;;;21.80;;
1336;SDS011;662;48.814;9.318;2024-03-08T06:58:13;25.23;;;21.30;;
1336;SDS011;662;48.814;9.318;2024-03-08T07:00:38;25.60;;;21.30;;
1336;SDS011;662;48.814;9.318;2024-03-08T07:03:07;29.73;;;22.30;;
1336;SDS011;662;48.814;9.318;2024-03-08T07:05:37;30.47;;;21.13;;
1336;SDS011;662;48.814;9.318;2024-03-08T07:08:03;29.20;;;22.03;;
1336;SDS011;662;48.814;9.318;2024-03-08T07:10:29;27.03;;;22.80;;
1336;SDS011;662;48.814;9.318;2024-03-08T07:12:54;25.70;;;21.27;;
1336;SDS011;662;48.814;9.318;2024-03-08T07:15:20;25.90;;;22.73;;
1336;SDS011;662;48.814;9.318;2024-03-08T07:17:48;26.67;;;22.43;;
1336;SDS011;662;48.814;9.318;2024-03-08T07:20:14;25.90;;;20.93;;
1336;SDS011;662;48.814;9.318;2024-03-08T07:22:43;27.90;;;21.47;;
1336;SDS011;662;48.814;9.318;2024-03-08T07:25:13;26.70;;;21.00;;
1336;SDS011;662;48.814;9.318;2024-03-08T07:27:49;24.33;;;19.87;;
1336;SDS011;662;48.814;9.318;2024-03-08T07:30:16;25.97;;;21.80;;
1336;SDS011;662;48.814;9.318;2024-03-08T07:33:01;23.47;;;19.50;;
1336;SDS011;662;48.814;9.318;2024-03-08T07:35:27;23.13;;;19.53;;
1336;SDS011;662;48.814;9.318;2024-03-08T07:37:53;24.87;;;19.40;;
1336;SDS011;662;48.814;9.318;2024-03-08T07:40:20;26.87;;;21.30;;
1336;SDS011;662;48.814;9.318;2024-03-08T07:42:46;24.30;;;20.43;;
1336;SDS011;662;48.814;9.318;2024-03-08T07:45:12;23.93;;;19.50;;
1336;SDS011;662;48.814;9.318;2024-03-08T07:47:37;25.83;;;22.20;;
1336;SDS011;662;48.814;9.318;2024-03-08T07:50:03;28.30;;;21.47;;
1336;SDS011;662;48.814;9.318;2024-03-08T07:52:29;29.10;;;22.23;;
1336;SDS011;662;48.814;9.318;2024-03-08T07:54:55;25.83;;;20.60;;
1336;SDS011;662;48.814;9.318;2024-03-08T07:57:21;27.00;;;21.20;;
1336;SDS011;662;48.814;9.318;2024-03-08T07:59:46;27.63;;;21.67;;
1336;SDS011;662;48.814;9.318;2024-03-08T08:02:12;24.77;;;21.10;;
1336;SDS011;662;48.814;9.318;2024-03-08T08:04:38;26.97;;;22.50;;
1336;SDS011;662;48.814;9.318;2024-03-08T08:07:04;24.07;;;20.30;;
1336;SDS011;662;48.814;9.318;2024-03-08T08:09:29;26.40;;;21.50;;
1336;SDS011;662;48.814;9.318;2024-03-08T08:11:59;24.37;;;20.80;;
1336;SDS011;662;48.814;9.318;2024-03-08T08:14:27;29.37;;;21.87;;
1336;SDS011;662;48.814;9.318;2024-03-08T08:16:54;25.80;;;20.83;;
1336;SDS011;662;48.814;9.318;2024-03-08T08:19:22;26.30;;;21.20;;
1336;SDS011;662;48.814;9.318;2024-03-08T08:21:48;26.57;;;20.57;;
1336;SDS011;662;48.814;9.318;2024-03-08T08:24:13;29.57;;;21.60;;
1336;SDS011;662;48.814;9.318;2024-03-08T08:26:40;26.83;;;21.27;;
1336;SDS011;662;48.814;9.318;2024-03-08T08:29:05;27.30;;;20.20;;
1336;SDS011;662;48.814;9.318;2024-03-08T08:31:32;28.57;;;20.40;;
1336;SDS011;662;48.814;9.318;2024-03-08T08:33:58;27.60;;;21.00;;
1336;SDS011;662;48.814;9.318;2024-03-08T08:36:24;24.37;;;20.33;;
1336;SDS011;662;48.814;9.318;2024-03-08T08:38:50;28.80;;;21.97;;
1336;SDS011;662;48.814;9.318;2024-03-08T08:41:19;25.40;;;20.30;;
1336;SDS011;662;48.814;9.318;2024-03-08T08:43:46;26.03;;;20.80;;
1336;SDS011;662;48.814;9.318;2024-03-08T08:46:11;27.57;;;21.67;;
1336;SDS011;662;48.814;9.318;2024-03-08T08:48:38;24.17;;;18.40;;
1336;SDS011;662;48.814;9.318;2024-03-08T08:51:06;26.10;;;19.67;;
1336;SDS011;662;48.814;9.318;2024-03-08T08:53:38;22.70;;;19.37;;
1336;SDS011;662;48.814;9.318;2024-03-08T08:56:14;25.60;;;19.40;;
1336;SDS011;662;48.814;9.318;2024-03-08T08:58:41;27.00;;;20.40;;
1336;SDS011;662;48.814;9.318;2024-03-08T09:01:07;24.90;;;19.20;;
1336;SDS011;662;48.814;9.318;2024-03-08T09:03:35;22.43;;;18.30;;
1336;SDS011;662;48.814;9.318;2024-03-08T09:06:02;24.10;;;18.30;;
1336;SDS011;662;48.814;9.318;2024-03-08T09:08:30;24.77;;;20.10;;
1336;SDS011;662;48.814;9.318;2024-03-08T09:10:56;27.57;;;19.57;;
1336;SDS011;662;48.814;9.318;2024-03-08T09:13:21;23.37;;;18.10;;
1336;SDS011;662;48.814;9.318;2024-03-08T09:15:48;29.97;;;21.80;;
1336;SDS011;662;48.814;9.318;2024-03-08T09:18:13;27.27;;;19.50;;
1336;SDS011;662;48.814;9.318;2024-03-08T09:20:39;26.30;;;18.97;;
1336;SDS011;662;48.814;9.318;2024-03-08T09:23:06;25.60;;;19.33;;
1336;SDS011;662;48.814;9.318;2024-03-08T09:25:33;26.20;;;19.40;;
1336;SDS011;662;48.814;9.318;2024-03-08T09:27:59;26.10;;;19.53;;
1336;SDS011;662;48.814;9.318;2024-03-08T09:30:24;25.00;;;19.60;;
1336;SDS011;662;48.814;9.318;2024-03-08T09:32:50;22.50;;;17.40;;
1336;SDS011;662;48.814;9.318;2024-03-08T09:35:16;24.30;;;17.40;;
1336;SDS011;662;48.814;9.318;2024-03-08T09:37:42;30.77;;;19.57;;
1336;SDS011;662;48.814;9.318;2024-03-08T09:40:07;27.20;;;18.43;;
1336;SDS011;662;48.814;9.318;2024-03-08T09:42:40;24.60;;;17.30;;
1336;SDS011;662;48.814;9.318;2024-03-08T09:45:10;30.27;;;19.60;;
1336;SDS011;662;48.814;9.318;2024-03-08T09:47:43;36.30;;;20.57;;
1336;SDS011;662;48.814;9.318;2024-03-08T09:50:09;25.70;;;17.07;;
1336;SDS011;662;48.814;9.318;2024-03-08T09:52:40;24.60;;;17.43;;
1336;SDS011;662;48.814;9.318;2024-03-08T09:55:08;26.80;;;17.03;;
1336;SDS011;662;48.814;9.318;2024-03-08T09:57:36;24.00;;;16.43;;
1336;SDS011;662;48.814;9.318;2024-03-08T10:00:03;25.27;;;16.27;;
1336;SDS011;662;48.814;9.318;2024-03-08T10:02:49;30.20;;;17.73;;
1336;SDS011;662;48.814;9.318;2024-03-08T10:05:17;22.60;;;15.80;;
1336;SDS011;662;48.814;9.318;2024-03-08T10:07:43;24.97;;;17.30;;
1336;SDS011;662;48.814;9.318;2024-03-08T10:10:09;26.10;;;17.50;;
1336;SDS011;662;48.814;9.318;2024-03-08T10:12:37;26.00;;;17.33;;
1336;SDS011;662;48.814;9.318;2024-03-08T10:15:05;24.30;;;15.93;;
1336;SDS011;662;48.814;9.318;2024-03-08T10:17:36;25.10;;;17.10;;
1336;SDS011;662;48.814;9.318;2024-03-08T10:20:02;26.13;;;17.20;;
1336;SDS011;662;48.814;9.318;2024-03-08T10:22:29;24.33;;;16.73;;
1336;SDS011;662;48.814;9.318;2024-03-08T10:24:56;21.43;;;14.37;;
1336;SDS011;662;48.814;9.318;2024-03-08T10:27:23;24.13;;;16.00;;
1336;SDS011;662;48.814;9.318;2024-03-08T10:29:50;20.43;;;15.10;;
1336;SDS011;662;48.814;9.318;2024-03-08T10:32:17;23.40;;;16.50;;
1336;SDS011;662;48.814;9.318;2024-03-08T10:34:43;27.20;;;17.73;;
1336;SDS011;662;48.814;9.318;2024-03-08T10:37:11;24.30;;;16.93;;
1336;SDS011;662;48.814;9.318;2024-03-08T10:39:42;23.13;;;16.57;;
1336;SDS011;662;48.814;9.318;2024-03-08T10:42:15;19.93;;;15.03;;
1336;SDS011;662;48.814;9.318;2024-03-08T10:48:23;24.03;;;16.53;;
1336;SDS011;662;48.814;9.318;2024-03-08T10:50:59;23.23;;;16.80;;
1336;SDS011;662;48.814;9.318;2024-03-08T10:53:27;27.10;;;16.77;;
1336;SDS011;662;48.814;9.318;2024-03-08T10:55:54;20.90;;;15.40;;
1336;SDS011;662;48.814;9.318;2024-03-08T10:58:22;24.30;;;16.97;;
1336;SDS011;662;48.814;9.318;2024-03-08T11:00:52;22.80;;;16.17;;
1336;SDS011;662;48.814;9.318;2024-03-08T11:06:10;21.33;;;15.33;;
1336;SDS011;662;48.814;9.318;2024-03-08T11:08:43;28.30;;;17.90;;
1336;SDS011;662;48.814;9.318;2024-03-08T11:11:25;27.37;;;16.57;;
1336;SDS011;662;48.814;9.318;2024-03-08T11:13:56;23.70;;;16.73;;
1336;SDS011;662;48.814;9.318;2024-03-08T11:18:55;24.57;;;17.33;;
1336;SDS011;662;48.814;9.318;2024-03-08T11:21:29;31.43;;;17.97;;
1336;SDS011;662;48.814;9.318;2024-03-08T11:24:01;24.10;;;15.70;;
1336;SDS011;662;48.814;9.318;2024-03-08T11:26:38;25.23;;;17.23;;
1336;SDS011;662;48.814;9.318;2024-03-08T11:34:32;25.10;;;15.60;;
1336;SDS011;662;48.814;9.318;2024-03-08T11:37:03;21.07;;;15.33;;
1336;SDS011;662;48.814;9.318;2024-03-08T11:39:29;21.73;;;15.00;;
1336;SDS011;662;48.814;9.318;2024-03-08T11:41:55;26.57;;;16.97;;
1336;SDS011;662;48.814;9.318;2024-03-08T11:44:21;24.17;;;14.83;;
1336;SDS011;662;48.814;9.318;2024-03-08T11:46:52;21.83;;;15.07;;
1336;SDS011;662;48.814;9.318;2024-03-08T11:49:19;22.40;;;14.73;;
1336;SDS011;662;48.814;9.318;2024-03-08T11:51:45;20.27;;;13.93;;
1336;SDS011;662;48.814;9.318;2024-03-08T11:54:11;23.60;;;14.57;;
1336;SDS011;662;48.814;9.318;2024-03-08T11:56:40;18.73;;;14.00;;
1336;SDS011;662;48.814;9.318;2024-03-08T11:59:12;20.63;;;14.90;;
1336;SDS011;662;48.814;9.318;2024-03-08T12:01:38;25.70;;;14.23;;
1336;SDS011;662;48.814;9.318;2024-03-08T12:04:04;19.73;;;14.23;;
1336;SDS011;662;48.814;9.318;2024-03-08T12:06:37;20.10;;;13.70;;
1336;SDS011;662;48.814;9.318;2024-03-08T12:09:05;21.10;;;15.83;;
1336;SDS011;662;48.814;9.318;2024-03-08T12:11:36;21.20;;;15.33;;
1336;SDS011;662;48.814;9.318;2024-03-08T12:14:02;21.93;;;15.83;;
1336;SDS011;662;48.814;9.318;2024-03-08T12:16:29;20.37;;;14.57;;
1336;SDS011;662;48.814;9.318;2024-03-08T12:18:55;20.90;;;14.53;;
1336;SDS011;662;48.814;9.318;2024-03-08T12:21:21;19.77;;;13.60;;
1336;SDS011;662;48.814;9.318;2024-03-08T12:23:51;19.97;;;13.93;;
1336;SDS011;662;48.814;9.318;2024-03-08T12:26:34;18.90;;;13.70;;
1336;SDS011;662;48.814;9.318;2024-03-08T12:29:17;23.00;;;13.90;;
1336;SDS011;662;48.814;9.318;2024-03-08T12:31:48;23.67;;;15.70;;
1336;SDS011;662;48.814;9.318;2024-03-08T12:34:17;18.10;;;14.03;;
1336;SDS011;662;48.814;9.318;2024-03-08T12:36:46;18.80;;;14.10;;
1336;SDS011;662;48.814;9.318;2024-03-08T12:39:16;17.87;;;14.27;;
1336;SDS011;662;48.814;9.318;2024-03-08T12:41:52;27.13;;;17.00;;
1336;SDS011;662;48.814;9.318;2024-03-08T12:44:19;20.43;;;15.40;;
1336;SDS011;662;48.814;9.318;2024-03-08T12:46:46;20.70;;;14.90;;
1336;SDS011;662;48.814;9.318;2024-03-08T12:49:13;18.67;;;14.10;;
1336;SDS011;662;48.814;9.318;2024-03-08T12:51:42;20.00;;;15.30;;
1336;SDS011;662;48.814;9.318;2024-03-08T12:54:08;19.13;;;14.10;;
1336;SDS011;662;48.814;9.318;2024-03-08T12:56:34;19.57;;;14.80;;
1336;SDS011;662;48.814;9.318;2024-03-08T12:59:02;19.93;;;14.83;;
1336;SDS011;662;48.814;9.318;2024-03-08T13:01:28;23.90;;;15.73;;
1336;SDS011;662;48.814;9.318;2024-03-08T13:03:56;18.90;;;13.90;;
1336;SDS011;662;48.814;9.318;2024-03-08T13:06:22;18.37;;;14.13;;
1336;SDS011;662;48.814;9.318;2024-03-08T13:08:50;19.70;;;15.20;;
1336;SDS011;662;48.814;9.318;2024-03-08T13:11:17;20.23;;;14.80;;
1336;SDS011;662;48.814;9.318;2024-03-08T13:13:44;19.60;;;14.33;;
1336;SDS011;662;48.814;9.318;2024-03-08T13:16:10;20.40;;;13.57;;
1336;SDS011;662;48.814;9.318;2024-03-08T13:18:37;21.87;;;14.33;;
1336;SDS011;662;48.814;9.318;2024-03-08T13:21:03;18.47;;;13.63;;
1336;SDS011;662;48.814;9.318;2024-03-08T13:23:36;18.90;;;13.97;;
1336;SDS011;662;48.814;9.318;2024-03-08T13:26:10;20.50;;;14.23;;
1336;SDS011;662;48.814;9.318;2024-03-08T13:28:40;18.90;;;14.27;;
1336;SDS011;662;48.814;9.318;2024-03-08T13:31:13;18.70;;;14.03;;
1336;SDS011;662;48.814;9.318;2024-03-08T13:33:40;19.10;;;14.87;;
1336;SDS011;662;48.814;9.318;2024-03-08T13:36:07;20.20;;;12.57;;
1336;SDS011;662;48.814;9.318;2024-03-08T13:38:43;17.20;;;13.80;;
1336;SDS011;662;48.814;9.318;2024-03-08T13:41:12;19.33;;;14.00;;
1336;SDS011;662;48.814;9.318;2024-03-08T13:43:43;19.43;;;13.80;;
1336;SDS011;662;48.814;9.318;2024-03-08T13:46:10;18.73;;;14.00;;
1336;SDS011;662;48.814;9.318;2024-03-08T13:48:41;17.37;;;13.20;;
1336;SDS011;662;48.814;9.318;2024-03-08T13:51:46;19.80;;;14.30;;
1336;SDS011;662;48.814;9.318;2024-03-08T13:54:13;16.70;;;12.80;;
1336;SDS011;662;48.814;9.318;2024-03-08T13:56:41;18.80;;;14.47;;
1336;SDS011;662;48.814;9.318;2024-03-08T13:59:08;19.70;;;13.73;;
1336;SDS011;662;48.814;9.318;2024-03-08T14:01:34;19.07;;;14.30;;
1336;SDS011;662;48.814;9.318;2024-03-08T14:04:00;16.33;;;13.60;;
1336;SDS011;662;48.814;9.318;2024-03-08T14:06:26;20.13;;;14.77;;
1336;SDS011;662;48.814;9.318;2024-03-08T14:08:52;20.40;;;14.87;;
1336;SDS011;662;48.814;9.318;2024-03-08T14:11:18;18.23;;;13.33;;
1336;SDS011;662;48.814;9.318;2024-03-08T14:13:44;17.07;;;14.07;;
1336;SDS011;662;48.814;9.318;2024-03-08T14:16:13;22.93;;;14.77;;
1336;SDS011;662;48.814;9.318;2024-03-08T14:18:40;17.50;;;13.20;;
1336;SDS011;662;48.814;9.318;2024-03-08T14:21:05;20.60;;;13.93;;
1336;SDS011;662;48.814;9.318;2024-03-08T14:23:33;18.67;;;12.73;;
1336;SDS011;662;48.814;9.318;2024-03-08T14:25:59;16.37;;;12.67;;
1336;SDS011;662;48.814;9.318;2024-03-08T14:28:25;16.73;;;12.07;;
1336;SDS011;662;48.814;9.318;2024-03-08T14:30:52;19.30;;;13.73;;
1336;SDS011;662;48.814;9.318;2024-03-08T14:33:18;19.23;;;12.77;;
1336;SDS011;662;48.814;9.318;2024-03-08T14:35:44;18.70;;;12.70;;
1336;SDS011;662;48.814;9.318;2024-03-08T14:38:12;17.57;;;13.43;;
1336;SDS011;662;48.814;9.318;2024-03-08T14:40:38;16.97;;;12.77;;
1336;SDS011;662;48.814;9.318;2024-03-08T14:43:04;19.87;;;15.40;;
1336;SDS011;662;48.814;9.318;2024-03-08T14:45:30;18.23;;;13.47;;
1336;SDS011;662;48.814;9.318;2024-03-08T14:47:56;18.37;;;13.73;;
1336;SDS011;662;48.814;9.318;2024-03-08T14:50:23;18.60;;;14.10;;
1336;SDS011;662;48.814;9.318;2024-03-08T14:52:49;20.53;;;14.23;;
1336;SDS011;662;48.814;9.318;2024-03-08T14:55:16;18.17;;;14.10;;
1336;SDS011;662;48.814;9.318;2024-03-08T14:57:47;19.00;;;14.50;;
1336;SDS011;662;48.814;9.318;2024-03-08T15:00:16;22.00;;;14.50;;
1336;SDS011;662;48.814;9.318;2024-03-08T15:02:52;21.53;;;15.43;;
1336;SDS011;662;48.814;9.318;2024-03-08T15:05:19;20.07;;;14.20;;
1336;SDS011;662;48.814;9.318;2024-03-08T15:07:46;20.23;;;13.40;;
1336;SDS011;662;48.814;9.318;2024-03-08T15:10:12;19.70;;;13.80;;
1336;SDS011;662;48.814;9.318;2024-03-08T15:12:41;20.10;;;13.83;;
1336;SDS011;662;48.814;9.318;2024-03-08T15:15:08;17.53;;;12.97;;